sensor_id;sensor_type;location;lat;lon;timestamp;P1;durP1;ratioP1;P2;durP2;ratioP2
72194;SDS011;60095;50.180;9.032;2023-01-05T00:01:30;0.70;;;0.70;;
72194;SDS011;60095;50.180;9.032;2023-01-05T00:03:56;1.95;;;1.60;;
72194;SDS011;60095;50.180;9.032;2023-01-05T00:06:23;1.30;;;0.93;;
72194;SDS011;60095;50.180;9.032;2023-01-05T00:08:51;1.70;;;0.85;;
72194;SDS011;60095;50.180;9.032;2023-01-05T00:11:18;1.27;;;1.02;;
72194;SDS011;60095;50.180;9.032;2023-01-05T00:14:04;2.65;;;0.93;;
72194;SDS011;60095;50.180;9.032;2023-01-05T00:16:48;3.13;;;0.93;;
72194;SDS011;60095;50.180;9.032;2023-01-05T00:19:33;1.08;;;0.80;;
72194;SDS011;60095;50.180;9.032;2023-01-05T00:22:18;0.82;;;0.47;;
72194;SDS011;60095;50.180;9.032;2023-01-05T00:24:59;0.75;;;0.47;;
72194;SDS011;60095;50.180;9.032;2023-01-05T00:27:26;0.30;;;0.20;;
72194;SDS011;60095;50.180;9.032;2023-01-05T00:29:53;0.93;;;0.47;;
72194;SDS011;60095;50.180;9.032;2023-01-05T00:32:19;2.60;;;0.80;;
72194;SDS011;60095;50.180;9.032;2023-01-05T00:34:45;1.08;;;0.80;;
72194;SDS011;60095;50.180;9.032;2023-01-05T00:37:12;0.50;;;0.30;;
72194;SDS011;60095;50.180;9.032;2023-01-05T00:39:38;1.23;;;0.52;;
72194;SDS011;60095;50.180;9.032;2023-01-05T00:42:06;0.70;;;0.15;;
72194;SDS011;60095;50.180;9.032;2023-01-05T00:44:33;0.20;;;0.20;;
72194;SDS011;60095;50.180;9.032;2023-01-05T00:46:59;0.43;;;0.43;;
72194;SDS011;60095;50.180;9.032;2023-01-05T00:49:26;0.57;;;0.30;;
72194;SDS011;60095;50.180;9.032;2023-01-05T00:51:52;0.03;;;0.03;;
72194;SDS011;60095;50.180;9.032;2023-01-05T00:54:21;0.30;;;0.20;;
72194;SDS011;60095;50.180;9.032;2023-01-05T00:56:47;0.77;;;0.40;;
72194;SDS011;60095;50.180;9.032;2023-01-05T00:59:15;0.47;;;0.30;;
72194;SDS011;60095;50.180;9.032;2023-01-05T01:01:43;0.75;;;0.50;;
72194;SDS011;60095;50.180;9.032;2023-01-05T01:04:10;0.90;;;0.70;;
72194;SDS011;60095;50.180;9.032;2023-01-05T01:06:36;0.50;;;0.30;;
72194;SDS011;60095;50.180;9.032;2023-01-05T01:09:03;0.35;;;0.28;;
72194;SDS011;60095;50.180;9.032;2023-01-05T01:11:29;0.63;;;0.63;;
72194;SDS011;60095;50.180;9.032;2023-01-05T01:13:56;0.47;;;0.30;;
72194;SDS011;60095;50.180;9.032;2023-01-05T01:16:24;0.32;;;0.15;;
72194;SDS011;60095;50.180;9.032;2023-01-05T01:18:50;0.57;;;0.30;;
72194;SDS011;60095;50.180;9.032;2023-01-05T01:21:17;0.30;;;0.30;;
72194;SDS011;60095;50.180;9.032;2023-01-05T01:23:43;0.85;;;0.35;;
72194;SDS011;60095;50.180;9.032;2023-01-05T01:26:11;0.10;;;0.10;;
72194;SDS011;60095;50.180;9.032;2023-01-05T01:28:37;0.00;;;0.00;;
72194;SDS011;60095;50.180;9.032;2023-01-05T01:31:04;0.52;;;0.10;;
72194;SDS011;60095;50.180;9.032;2023-01-05T01:33:32;0.10;;;0.10;;
72194;SDS011;60095;50.180;9.032;2023-01-05T01:36:02;1.45;;;0.40;;
72194;SDS011;60095;50.180;9.032;2023-01-05T01:38:28;0.40;;;0.30;;
72194;SDS011;60095;50.180;9.032;2023-01-05T01:40:55;0.88;;;0.40;;
72194;SDS011;60095;50.180;9.032;2023-01-05T01:46:03;0.30;;;0.15;;
72194;SDS011;60095;50.180;9.032;2023-01-05T01:48:30;1.00;;;0.40;;
72194;SDS011;60095;50.180;9.032;2023-01-05T01:50:58;0.55;;;0.40;;
72194;SDS011;60095;50.180;9.032;2023-01-05T01:53:28;0.43;;;0.30;;
72194;SDS011;60095;50.180;9.032;2023-01-05T01:55:56;0.13;;;0.10;;
72194;SDS011;60095;50.180;9.032;2023-01-05T01:58:25;1.52;;;0.88;;
72194;SDS011;60095;50.180;9.032;2023-01-05T02:00:52;0.30;;;0.22;;
72194;SDS011;60095;50.180;9.032;2023-01-05T02:03:20;0.25;;;0.20;;
72194;SDS011;60095;50.180;9.032;2023-01-05T02:05:49;0.55;;;0.40;;
72194;SDS011;60095;50.180;9.032;2023-01-05T02:08:17;0.63;;;0.40;;
72194;SDS011;60095;50.180;9.032;2023-01-05T02:10:56;0.75;;;0.43;;
72194;SDS011;60095;50.180;9.032;2023-01-05T02:13:31;0.50;;;0.30;;
72194;SDS011;60095;50.180;9.032;2023-01-05T02:16:05;0.10;;;0.10;;
72194;SDS011;60095;50.180;9.032;2023-01-05T02:18:37;0.52;;;0.35;;
72194;SDS011;60095;50.180;9.032;2023-01-05T02:21:19;0.32;;;0.32;;
72194;SDS011;60095;50.180;9.032;2023-01-05T02:29:28;1.08;;;0.35;;
72194;SDS011;60095;50.180;9.032;2023-01-05T02:32:00;1.23;;;0.35;;
72194;SDS011;60095;50.180;9.032;2023-01-05T02:34:29;0.52;;;0.30;;
72194;SDS011;60095;50.180;9.032;2023-01-05T02:37:03;2.08;;;1.25;;
72194;SDS011;60095;50.180;9.032;2023-01-05T02:39:33;0.35;;;0.35;;
72194;SDS011;60095;50.180;9.032;2023-01-05T02:42:02;0.45;;;0.20;;
72194;SDS011;60095;50.180;9.032;2023-01-05T02:44:30;0.82;;;0.80;;
72194;SDS011;60095;50.180;9.032;2023-01-05T02:47:00;0.22;;;0.20;;
72194;SDS011;60095;50.180;9.032;2023-01-05T02:49:26;3.65;;;0.60;;
72194;SDS011;60095;50.180;9.032;2023-01-05T02:51:54;0.28;;;0.25;;
72194;SDS011;60095;50.180;9.032;2023-01-05T02:54:24;0.82;;;0.50;;
72194;SDS011;60095;50.180;9.032;2023-01-05T02:56:53;1.73;;;0.50;;
72194;SDS011;60095;50.180;9.032;2023-01-05T02:59:22;2.10;;;0.68;;
72194;SDS011;60095;50.180;9.032;2023-01-05T03:01:50;4.80;;;0.80;;
72194;SDS011;60095;50.180;9.032;2023-01-05T03:04:21;0.50;;;0.38;;
72194;SDS011;60095;50.180;9.032;2023-01-05T03:06:50;1.15;;;0.63;;
72194;SDS011;60095;50.180;9.032;2023-01-05T03:09:23;0.52;;;0.45;;
72194;SDS011;60095;50.180;9.032;2023-01-05T03:11:54;0.40;;;0.20;;
72194;SDS011;60095;50.180;9.032;2023-01-05T03:14:41;0.10;;;0.10;;
72194;SDS011;60095;50.180;9.032;2023-01-05T03:17:14;1.23;;;0.73;;
72194;SDS011;60095;50.180;9.032;2023-01-05T03:19:44;10.77;;;0.82;;
72194;SDS011;60095;50.180;9.032;2023-01-05T03:22:12;2.85;;;0.40;;
72194;SDS011;60095;50.180;9.032;2023-01-05T03:24:57;3.65;;;0.43;;
72194;SDS011;60095;50.180;9.032;2023-01-05T03:27:41;0.50;;;0.40;;
72194;SDS011;60095;50.180;9.032;2023-01-05T03:30:26;0.32;;;0.30;;
72194;SDS011;60095;50.180;9.032;2023-01-05T03:33:13;2.47;;;1.45;;
72194;SDS011;60095;50.180;9.032;2023-01-05T03:36:02;2.28;;;1.25;;
72194;SDS011;60095;50.180;9.032;2023-01-05T03:38:30;1.95;;;1.00;;
72194;SDS011;60095;50.180;9.032;2023-01-05T03:40:57;8.05;;;1.40;;
72194;SDS011;60095;50.180;9.032;2023-01-05T03:43:24;2.90;;;1.45;;
72194;SDS011;60095;50.180;9.032;2023-01-05T03:45:52;2.40;;;1.23;;
72194;SDS011;60095;50.180;9.032;2023-01-05T03:48:18;3.33;;;1.40;;
72194;SDS011;60095;50.180;9.032;2023-01-05T03:50:45;1.10;;;0.90;;
72194;SDS011;60095;50.180;9.032;2023-01-05T03:53:14;7.70;;;1.70;;
72194;SDS011;60095;50.180;9.032;2023-01-05T03:55:40;5.45;;;1.98;;
72194;SDS011;60095;50.180;9.032;2023-01-05T03:58:07;2.55;;;0.88;;
72194;SDS011;60095;50.180;9.032;2023-01-05T04:00:39;11.15;;;3.10;;
72194;SDS011;60095;50.180;9.032;2023-01-05T04:03:05;5.05;;;1.52;;
72194;SDS011;60095;50.180;9.032;2023-01-05T04:05:34;4.82;;;0.98;;
72194;SDS011;60095;50.180;9.032;2023-01-05T04:08:01;3.08;;;0.63;;
72194;SDS011;60095;50.180;9.032;2023-01-05T04:10:29;4.95;;;0.55;;
72194;SDS011;60095;50.180;9.032;2023-01-05T04:12:55;1.48;;;0.90;;
72194;SDS011;60095;50.180;9.032;2023-01-05T04:15:22;5.88;;;1.58;;
72194;SDS011;60095;50.180;9.032;2023-01-05T04:17:48;4.68;;;2.92;;
72194;SDS011;60095;50.180;9.032;2023-01-05T04:20:15;4.68;;;0.98;;
72194;SDS011;60095;50.180;9.032;2023-01-05T04:22:41;8.68;;;1.85;;
72194;SDS011;60095;50.180;9.032;2023-01-05T04:25:08;12.27;;;2.63;;
72194;SDS011;60095;50.180;9.032;2023-01-05T04:27:36;17.00;;;2.65;;
72194;SDS011;60095;50.180;9.032;2023-01-05T04:30:07;6.18;;;1.35;;
72194;SDS011;60095;50.180;9.032;2023-01-05T04:32:33;0.60;;;0.60;;
72194;SDS011;60095;50.180;9.032;2023-01-05T04:35:00;9.23;;;2.15;;
72194;SDS011;60095;50.180;9.032;2023-01-05T04:37:26;13.98;;;2.47;;
72194;SDS011;60095;50.180;9.032;2023-01-05T04:39:53;9.52;;;2.45;;
72194;SDS011;60095;50.180;9.032;2023-01-05T04:42:19;4.03;;;2.28;;
72194;SDS011;60095;50.180;9.032;2023-01-05T04:44:47;8.25;;;1.20;;
72194;SDS011;60095;50.180;9.032;2023-01-05T04:47:13;11.52;;;1.08;;
72194;SDS011;60095;50.180;9.032;2023-01-05T04:49:39;5.90;;;1.67;;
72194;SDS011;60095;50.180;9.032;2023-01-05T04:52:06;6.13;;;1.45;;
72194;SDS011;60095;50.180;9.032;2023-01-05T04:54:34;5.30;;;1.02;;
72194;SDS011;60095;50.180;9.032;2023-01-05T04:57:02;2.88;;;2.20;;
72194;SDS011;60095;50.180;9.032;2023-01-05T04:59:29;13.15;;;1.77;;
72194;SDS011;60095;50.180;9.032;2023-01-05T05:01:57;3.10;;;1.48;;
72194;SDS011;60095;50.180;9.032;2023-01-05T05:04:23;8.07;;;1.67;;
72194;SDS011;60095;50.180;9.032;2023-01-05T05:06:50;14.18;;;1.77;;
72194;SDS011;60095;50.180;9.032;2023-01-05T05:09:16;8.32;;;2.72;;
72194;SDS011;60095;50.180;9.032;2023-01-05T05:11:46;5.45;;;3.75;;
72194;SDS011;60095;50.180;9.032;2023-01-05T05:14:13;3.95;;;2.63;;
72194;SDS011;60095;50.180;9.032;2023-01-05T05:16:44;6.38;;;2.10;;
72194;SDS011;60095;50.180;9.032;2023-01-05T05:19:12;12.55;;;1.83;;
72194;SDS011;60095;50.180;9.032;2023-01-05T05:21:39;7.35;;;2.75;;
72194;SDS011;60095;50.180;9.032;2023-01-05T05:24:05;9.65;;;1.63;;
72194;SDS011;60095;50.180;9.032;2023-01-05T05:26:32;3.80;;;1.77;;
72194;SDS011;60095;50.180;9.032;2023-01-05T05:28:58;7.20;;;2.00;;
72194;SDS011;60095;50.180;9.032;2023-01-05T05:31:25;4.00;;;1.35;;
72194;SDS011;60095;50.180;9.032;2023-01-05T05:33:52;21.17;;;2.80;;
72194;SDS011;60095;50.180;9.032;2023-01-05T05:36:21;7.53;;;2.45;;
72194;SDS011;60095;50.180;9.032;2023-01-05T05:38:54;8.88;;;2.08;;
72194;SDS011;60095;50.180;9.032;2023-01-05T05:41:20;4.57;;;1.40;;
72194;SDS011;60095;50.180;9.032;2023-01-05T05:43:47;3.35;;;1.88;;
72194;SDS011;60095;50.180;9.032;2023-01-05T05:46:13;11.23;;;2.22;;
72194;SDS011;60095;50.180;9.032;2023-01-05T05:48:40;3.75;;;2.25;;
72194;SDS011;60095;50.180;9.032;2023-01-05T05:51:06;14.65;;;1.48;;
72194;SDS011;60095;50.180;9.032;2023-01-05T05:53:34;23.70;;;3.10;;
72194;SDS011;60095;50.180;9.032;2023-01-05T05:56:00;7.63;;;2.05;;
72194;SDS011;60095;50.180;9.032;2023-01-05T05:58:27;7.38;;;1.48;;
72194;SDS011;60095;50.180;9.032;2023-01-05T06:00:55;10.90;;;2.00;;
72194;SDS011;60095;50.180;9.032;2023-01-05T06:03:22;6.13;;;2.90;;
72194;SDS011;60095;50.180;9.032;2023-01-05T06:05:49;1.10;;;0.85;;
72194;SDS011;60095;50.180;9.032;2023-01-05T06:08:15;8.20;;;2.17;;
72194;SDS011;60095;50.180;9.032;2023-01-05T06:10:43;12.52;;;1.35;;
72194;SDS011;60095;50.180;9.032;2023-01-05T06:13:12;11.63;;;1.95;;
72194;SDS011;60095;50.180;9.032;2023-01-05T06:15:39;10.50;;;3.25;;
72194;SDS011;60095;50.180;9.032;2023-01-05T06:18:05;6.47;;;1.42;;
72194;SDS011;60095;50.180;9.032;2023-01-05T06:20:32;4.10;;;2.78;;
72194;SDS011;60095;50.180;9.032;2023-01-05T06:22:58;5.47;;;1.58;;
72194;SDS011;60095;50.180;9.032;2023-01-05T06:25:25;13.25;;;3.47;;
72194;SDS011;60095;50.180;9.032;2023-01-05T06:27:52;13.55;;;2.35;;
72194;SDS011;60095;50.180;9.032;2023-01-05T06:30:19;17.73;;;4.47;;
72194;SDS011;60095;50.180;9.032;2023-01-05T06:32:45;9.52;;;3.03;;
72194;SDS011;60095;50.180;9.032;2023-01-05T06:35:12;1.25;;;0.90;;
72194;SDS011;60095;50.180;9.032;2023-01-05T06:37:38;1.20;;;1.10;;
72194;SDS011;60095;50.180;9.032;2023-01-05T06:40:05;8.35;;;1.35;;
72194;SDS011;60095;50.180;9.032;2023-01-05T06:42:33;11.13;;;3.45;;
72194;SDS011;60095;50.180;9.032;2023-01-05T06:45:01;4.53;;;3.25;;
72194;SDS011;60095;50.180;9.032;2023-01-05T06:47:27;7.95;;;2.88;;
72194;SDS011;60095;50.180;9.032;2023-01-05T06:49:54;3.28;;;1.77;;
72194;SDS011;60095;50.180;9.032;2023-01-05T06:52:20;8.18;;;2.80;;
72194;SDS011;60095;50.180;9.032;2023-01-05T06:54:47;9.77;;;1.98;;
72194;SDS011;60095;50.180;9.032;2023-01-05T06:57:13;11.30;;;2.08;;
72194;SDS011;60095;50.180;9.032;2023-01-05T06:59:40;4.95;;;2.72;;
72194;SDS011;60095;50.180;9.032;2023-01-05T07:02:09;15.13;;;4.13;;
72194;SDS011;60095;50.180;9.032;2023-01-05T07:04:37;8.75;;;2.22;;
72194;SDS011;60095;50.180;9.032;2023-01-05T07:07:04;2.53;;;1.42;;
72194;SDS011;60095;50.180;9.032;2023-01-05T07:09:30;21.02;;;3.83;;
72194;SDS011;60095;50.180;9.032;2023-01-05T07:11:57;3.63;;;2.13;;
72194;SDS011;60095;50.180;9.032;2023-01-05T07:14:23;9.68;;;2.60;;
72194;SDS011;60095;50.180;9.032;2023-01-05T07:16:50;5.20;;;2.25;;
72194;SDS011;60095;50.180;9.032;2023-01-05T07:19:18;6.07;;;3.65;;
72194;SDS011;60095;50.180;9.032;2023-01-05T07:21:44;4.20;;;1.98;;
72194;SDS011;60095;50.180;9.032;2023-01-05T07:24:10;6.32;;;3.50;;
72194;SDS011;60095;50.180;9.032;2023-01-05T07:26:37;8.88;;;2.28;;
72194;SDS011;60095;50.180;9.032;2023-01-05T07:29:03;9.52;;;2.53;;
72194;SDS011;60095;50.180;9.032;2023-01-05T07:31:30;8.57;;;3.47;;
72194;SDS011;60095;50.180;9.032;2023-01-05T07:33:56;3.30;;;2.08;;
72194;SDS011;60095;50.180;9.032;2023-01-05T07:36:24;2.22;;;1.23;;
72194;SDS011;60095;50.180;9.032;2023-01-05T07:38:50;6.63;;;1.58;;
72194;SDS011;60095;50.180;9.032;2023-01-05T07:41:16;4.60;;;2.47;;
72194;SDS011;60095;50.180;9.032;2023-01-05T07:43:43;1.40;;;1.30;;
72194;SDS011;60095;50.180;9.032;2023-01-05T07:46:09;4.28;;;2.50;;
72194;SDS011;60095;50.180;9.032;2023-01-05T07:48:36;11.50;;;2.88;;
72194;SDS011;60095;50.180;9.032;2023-01-05T07:51:05;3.65;;;1.63;;
72194;SDS011;60095;50.180;9.032;2023-01-05T07:53:33;10.30;;;1.60;;
72194;SDS011;60095;50.180;9.032;2023-01-05T07:56:02;5.40;;;1.63;;
72194;SDS011;60095;50.180;9.032;2023-01-05T07:58:39;10.15;;;1.73;;
72194;SDS011;60095;50.180;9.032;2023-01-05T08:01:08;12.87;;;2.60;;
72194;SDS011;60095;50.180;9.032;2023-01-05T08:03:35;4.00;;;1.75;;
72194;SDS011;60095;50.180;9.032;2023-01-05T08:06:04;8.85;;;1.75;;
72194;SDS011;60095;50.180;9.032;2023-01-05T08:08:37;8.67;;;1.80;;
72194;SDS011;60095;50.180;9.032;2023-01-05T08:11:15;2.95;;;1.23;;
72194;SDS011;60095;50.180;9.032;2023-01-05T08:13:48;1.75;;;1.27;;
72194;SDS011;60095;50.180;9.032;2023-01-05T08:16:30;1.85;;;0.88;;
72194;SDS011;60095;50.180;9.032;2023-01-05T08:19:06;5.85;;;1.23;;
72194;SDS011;60095;50.180;9.032;2023-01-05T08:21:37;2.50;;;1.55;;
72194;SDS011;60095;50.180;9.032;2023-01-05T08:24:19;3.85;;;1.88;;
72194;SDS011;60095;50.180;9.032;2023-01-05T08:26:48;11.60;;;2.10;;
72194;SDS011;60095;50.180;9.032;2023-01-05T08:29:14;3.90;;;2.20;;
72194;SDS011;60095;50.180;9.032;2023-01-05T08:31:41;4.45;;;2.72;;
72194;SDS011;60095;50.180;9.032;2023-01-05T08:34:07;3.10;;;1.55;;
72194;SDS011;60095;50.180;9.032;2023-01-05T08:36:34;3.20;;;1.52;;
72194;SDS011;60095;50.180;9.032;2023-01-05T08:39:10;7.47;;;2.42;;
72194;SDS011;60095;50.180;9.032;2023-01-05T08:41:44;8.30;;;2.00;;
72194;SDS011;60095;50.180;9.032;2023-01-05T08:44:12;15.40;;;1.33;;
72194;SDS011;60095;50.180;9.032;2023-01-05T08:46:39;3.70;;;1.75;;
72194;SDS011;60095;50.180;9.032;2023-01-05T08:49:07;4.20;;;1.38;;
72194;SDS011;60095;50.180;9.032;2023-01-05T08:51:34;12.82;;;2.65;;
72194;SDS011;60095;50.180;9.032;2023-01-05T08:54:00;3.13;;;2.00;;
72194;SDS011;60095;50.180;9.032;2023-01-05T08:56:27;6.55;;;1.52;;
72194;SDS011;60095;50.180;9.032;2023-01-05T08:58:55;2.08;;;1.85;;
72194;SDS011;60095;50.180;9.032;2023-01-05T09:01:23;10.57;;;2.13;;
72194;SDS011;60095;50.180;9.032;2023-01-05T09:03:49;3.88;;;1.58;;
72194;SDS011;60095;50.180;9.032;2023-01-05T09:06:16;1.55;;;1.20;;
72194;SDS011;60095;50.180;9.032;2023-01-05T09:08:42;4.72;;;1.67;;
72194;SDS011;60095;50.180;9.032;2023-01-05T09:11:10;13.02;;;3.20;;
72194;SDS011;60095;50.180;9.032;2023-01-05T09:13:37;1.35;;;1.15;;
72194;SDS011;60095;50.180;9.032;2023-01-05T09:16:06;2.67;;;1.23;;
72194;SDS011;60095;50.180;9.032;2023-01-05T09:18:34;6.38;;;2.55;;
72194;SDS011;60095;50.180;9.032;2023-01-05T09:21:00;1.60;;;0.93;;
72194;SDS011;60095;50.180;9.032;2023-01-05T09:23:27;8.90;;;2.58;;
72194;SDS011;60095;50.180;9.032;2023-01-05T09:25:53;2.25;;;1.33;;
72194;SDS011;60095;50.180;9.032;2023-01-05T09:28:20;6.15;;;2.20;;
72194;SDS011;60095;50.180;9.032;2023-01-05T09:30:46;2.30;;;1.55;;
72194;SDS011;60095;50.180;9.032;2023-01-05T09:33:14;1.17;;;0.47;;
72194;SDS011;60095;50.180;9.032;2023-01-05T09:35:43;2.75;;;1.35;;
72194;SDS011;60095;50.180;9.032;2023-01-05T09:38:14;7.25;;;1.73;;
72194;SDS011;60095;50.180;9.032;2023-01-05T09:40:41;3.28;;;1.55;;
72194;SDS011;60095;50.180;9.032;2023-01-05T09:43:09;1.92;;;1.33;;
72194;SDS011;60095;50.180;9.032;2023-01-05T09:45:37;4.90;;;1.50;;
72194;SDS011;60095;50.180;9.032;2023-01-05T09:48:03;13.23;;;1.63;;
72194;SDS011;60095;50.180;9.032;2023-01-05T09:50:31;3.67;;;1.55;;
72194;SDS011;60095;50.180;9.032;2023-01-05T09:53:01;10.20;;;1.90;;
72194;SDS011;60095;50.180;9.032;2023-01-05T09:55:28;2.00;;;1.30;;
72194;SDS011;60095;50.180;9.032;2023-01-05T09:57:56;2.60;;;2.05;;
72194;SDS011;60095;50.180;9.032;2023-01-05T10:00:23;8.23;;;2.20;;
72194;SDS011;60095;50.180;9.032;2023-01-05T10:02:51;4.38;;;2.30;;
72194;SDS011;60095;50.180;9.032;2023-01-05T10:05:18;3.85;;;1.75;;
72194;SDS011;60095;50.180;9.032;2023-01-05T10:07:49;13.23;;;4.43;;
72194;SDS011;60095;50.180;9.032;2023-01-05T10:10:19;8.07;;;2.05;;
72194;SDS011;60095;50.180;9.032;2023-01-05T10:12:47;11.65;;;2.90;;
72194;SDS011;60095;50.180;9.032;2023-01-05T10:15:29;6.18;;;1.92;;
72194;SDS011;60095;50.180;9.032;2023-01-05T10:17:57;7.43;;;3.15;;
72194;SDS011;60095;50.180;9.032;2023-01-05T10:20:26;12.23;;;2.90;;
72194;SDS011;60095;50.180;9.032;2023-01-05T10:22:59;6.55;;;1.92;;
72194;SDS011;60095;50.180;9.032;2023-01-05T10:25:31;4.88;;;2.75;;
72194;SDS011;60095;50.180;9.032;2023-01-05T10:28:00;12.90;;;2.25;;
72194;SDS011;60095;50.180;9.032;2023-01-05T10:30:33;4.90;;;2.10;;
72194;SDS011;60095;50.180;9.032;2023-01-05T10:33:08;4.45;;;1.38;;
72194;SDS011;60095;50.180;9.032;2023-01-05T10:35:43;5.50;;;2.28;;
72194;SDS011;60095;50.180;9.032;2023-01-05T10:38:16;6.05;;;2.15;;
72194;SDS011;60095;50.180;9.032;2023-01-05T10:40:50;3.60;;;0.95;;
72194;SDS011;60095;50.180;9.032;2023-01-05T10:43:30;7.38;;;2.40;;
72194;SDS011;60095;50.180;9.032;2023-01-05T10:46:03;5.32;;;3.28;;
72194;SDS011;60095;50.180;9.032;2023-01-05T10:48:33;3.05;;;1.23;;
72194;SDS011;60095;50.180;9.032;2023-01-05T10:51:00;9.45;;;2.10;;
72194;SDS011;60095;50.180;9.032;2023-01-05T10:53:29;4.55;;;1.58;;
72194;SDS011;60095;50.180;9.032;2023-01-05T10:55:57;6.28;;;1.80;;
72194;SDS011;60095;50.180;9.032;2023-01-05T10:58:25;3.08;;;2.03;;
72194;SDS011;60095;50.180;9.032;2023-01-05T11:00:53;12.38;;;3.08;;
72194;SDS011;60095;50.180;9.032;2023-01-05T11:03:22;8.57;;;3.35;;
72194;SDS011;60095;50.180;9.032;2023-01-05T11:05:50;3.10;;;1.83;;
72194;SDS011;60095;50.180;9.032;2023-01-05T11:08:17;3.95;;;2.72;;
72194;SDS011;60095;50.180;9.032;2023-01-05T11:10:48;10.13;;;2.17;;
72194;SDS011;60095;50.180;9.032;2023-01-05T11:13:17;10.30;;;3.45;;
72194;SDS011;60095;50.180;9.032;2023-01-05T11:15:45;4.93;;;2.00;;
72194;SDS011;60095;50.180;9.032;2023-01-05T11:18:18;7.68;;;3.30;;
72194;SDS011;60095;50.180;9.032;2023-01-05T11:21:03;2.70;;;1.38;;
72194;SDS011;60095;50.180;9.032;2023-01-05T11:23:32;5.55;;;1.48;;
72194;SDS011;60095;50.180;9.032;2023-01-05T11:26:07;6.38;;;2.17;;
72194;SDS011;60095;50.180;9.032;2023-01-05T11:28:40;6.95;;;1.70;;
72194;SDS011;60095;50.180;9.032;2023-01-05T11:31:21;2.80;;;0.85;;
72194;SDS011;60095;50.180;9.032;2023-01-05T11:33:48;5.93;;;1.60;;
72194;SDS011;60095;50.180;9.032;2023-01-05T11:36:28;7.05;;;2.20;;
72194;SDS011;60095;50.180;9.032;2023-01-05T11:39:06;15.75;;;3.35;;
72194;SDS011;60095;50.180;9.032;2023-01-05T11:41:50;13.80;;;2.83;;
72194;SDS011;60095;50.180;9.032;2023-01-05T11:44:17;15.93;;;3.28;;
72194;SDS011;60095;50.180;9.032;2023-01-05T11:46:45;10.25;;;3.97;;
72194;SDS011;60095;50.180;9.032;2023-01-05T11:49:12;8.13;;;3.10;;
72194;SDS011;60095;50.180;9.032;2023-01-05T11:54:38;6.00;;;1.52;;
72194;SDS011;60095;50.180;9.032;2023-01-05T11:57:09;8.48;;;2.50;;
72194;SDS011;60095;50.180;9.032;2023-01-05T11:59:37;14.00;;;2.42;;
72194;SDS011;60095;50.180;9.032;2023-01-05T12:02:05;7.13;;;1.83;;
72194;SDS011;60095;50.180;9.032;2023-01-05T12:04:47;2.05;;;1.08;;
72194;SDS011;60095;50.180;9.032;2023-01-05T12:07:21;4.18;;;1.83;;
72194;SDS011;60095;50.180;9.032;2023-01-05T12:09:53;9.43;;;2.28;;
72194;SDS011;60095;50.180;9.032;2023-01-05T12:12:39;11.80;;;2.67;;
72194;SDS011;60095;50.180;9.032;2023-01-05T12:15:21;7.65;;;2.63;;
72194;SDS011;60095;50.180;9.032;2023-01-05T12:17:54;7.97;;;3.15;;
72194;SDS011;60095;50.180;9.032;2023-01-05T12:20:31;16.30;;;3.83;;
72194;SDS011;60095;50.180;9.032;2023-01-05T12:23:01;2.58;;;1.67;;
72194;SDS011;60095;50.180;9.032;2023-01-05T12:25:33;8.55;;;2.17;;
72194;SDS011;60095;50.180;9.032;2023-01-05T12:30:48;5.80;;;1.63;;
72194;SDS011;60095;50.180;9.032;2023-01-05T12:35:56;7.57;;;2.83;;
72194;SDS011;60095;50.180;9.032;2023-01-05T12:38:31;5.35;;;2.88;;
72194;SDS011;60095;50.180;9.032;2023-01-05T12:41:04;21.88;;;3.40;;
72194;SDS011;60095;50.180;9.032;2023-01-05T12:43:36;13.70;;;4.70;;
72194;SDS011;60095;50.180;9.032;2023-01-05T12:46:11;8.43;;;3.22;;
72194;SDS011;60095;50.180;9.032;2023-01-05T12:48:39;5.55;;;2.85;;
72194;SDS011;60095;50.180;9.032;2023-01-05T12:51:08;6.25;;;2.40;;
72194;SDS011;60095;50.180;9.032;2023-01-05T12:53:40;3.88;;;1.98;;
72194;SDS011;60095;50.180;9.032;2023-01-05T12:56:10;10.25;;;2.88;;
72194;SDS011;60095;50.180;9.032;2023-01-05T12:59:43;7.28;;;2.88;;
72194;SDS011;60095;50.180;9.032;2023-01-05T13:01:41;4.68;;;1.67;;
72194;SDS011;60095;50.180;9.032;2023-01-05T13:04:11;9.70;;;4.22;;
72194;SDS011;60095;50.180;9.032;2023-01-05T13:06:39;13.55;;;3.25;;
72194;SDS011;60095;50.180;9.032;2023-01-05T13:09:10;3.33;;;1.60;;
72194;SDS011;60095;50.180;9.032;2023-01-05T13:11:40;9.35;;;3.53;;
72194;SDS011;60095;50.180;9.032;2023-01-05T13:14:09;5.07;;;2.30;;
72194;SDS011;60095;50.180;9.032;2023-01-05T13:16:39;3.25;;;1.88;;
72194;SDS011;60095;50.180;9.032;2023-01-05T13:19:09;8.57;;;3.15;;
72194;SDS011;60095;50.180;9.032;2023-01-05T13:21:38;2.75;;;2.25;;
72194;SDS011;60095;50.180;9.032;2023-01-05T13:24:05;13.88;;;3.33;;
72194;SDS011;60095;50.180;9.032;2023-01-05T13:26:34;13.05;;;2.83;;
72194;SDS011;60095;50.180;9.032;2023-01-05T13:29:01;5.13;;;1.65;;
72194;SDS011;60095;50.180;9.032;2023-01-05T13:31:39;15.50;;;4.32;;
72194;SDS011;60095;50.180;9.032;2023-01-05T13:34:13;17.27;;;3.10;;
72194;SDS011;60095;50.180;9.032;2023-01-05T13:36:51;9.02;;;3.65;;
72194;SDS011;60095;50.180;9.032;2023-01-05T13:39:28;5.45;;;2.47;;
72194;SDS011;60095;50.180;9.032;2023-01-05T13:42:03;8.13;;;3.17;;
72194;SDS011;60095;50.180;9.032;2023-01-05T13:44:38;9.35;;;3.45;;
72194;SDS011;60095;50.180;9.032;2023-01-05T13:47:17;13.35;;;3.05;;
72194;SDS011;60095;50.180;9.032;2023-01-05T13:52:37;9.02;;;2.47;;
72194;SDS011;60095;50.180;9.032;2023-01-05T13:55:08;10.20;;;4.43;;
72194;SDS011;60095;50.180;9.032;2023-01-05T13:57:37;6.00;;;2.15;;
72194;SDS011;60095;50.180;9.032;2023-01-05T14:00:05;4.55;;;2.03;;
72194;SDS011;60095;50.180;9.032;2023-01-05T14:02:33;12.07;;;2.13;;
72194;SDS011;60095;50.180;9.032;2023-01-05T14:05:00;4.63;;;2.50;;
72194;SDS011;60095;50.180;9.032;2023-01-05T14:07:29;15.63;;;2.72;;
72194;SDS011;60095;50.180;9.032;2023-01-05T14:09:56;16.30;;;2.40;;
72194;SDS011;60095;50.180;9.032;2023-01-05T14:12:40;8.68;;;2.95;;
72194;SDS011;60095;50.180;9.032;2023-01-05T14:17:52;7.88;;;2.50;;
72194;SDS011;60095;50.180;9.032;2023-01-05T14:20:31;6.70;;;3.13;;
72194;SDS011;60095;50.180;9.032;2023-01-05T14:25:50;22.02;;;3.15;;
72194;SDS011;60095;50.180;9.032;2023-01-05T14:28:40;9.55;;;2.30;;
72194;SDS011;60095;50.180;9.032;2023-01-05T14:34:11;6.15;;;2.33;;
72194;SDS011;60095;50.180;9.032;2023-01-05T14:36:39;4.72;;;1.30;;
72194;SDS011;60095;50.180;9.032;2023-01-05T14:39:06;20.35;;;3.78;;
72194;SDS011;60095;50.180;9.032;2023-01-05T14:41:34;6.07;;;3.45;;
72194;SDS011;60095;50.180;9.032;2023-01-05T14:44:02;8.07;;;2.45;;
72194;SDS011;60095;50.180;9.032;2023-01-05T14:46:41;14.35;;;3.88;;
72194;SDS011;60095;50.180;9.032;2023-01-05T14:49:16;3.38;;;2.45;;
72194;SDS011;60095;50.180;9.032;2023-01-05T14:51:50;3.63;;;2.97;;
72194;SDS011;60095;50.180;9.032;2023-01-05T14:54:17;6.80;;;4.10;;
72194;SDS011;60095;50.180;9.032;2023-01-05T14:59:45;4.93;;;1.90;;
72194;SDS011;60095;50.180;9.032;2023-01-05T15:02:13;10.40;;;3.47;;
72194;SDS011;60095;50.180;9.032;2023-01-05T15:04:42;7.07;;;3.05;;
72194;SDS011;60095;50.180;9.032;2023-01-05T15:07:12;4.40;;;2.83;;
72194;SDS011;60095;50.180;9.032;2023-01-05T15:09:54;6.25;;;3.28;;
72194;SDS011;60095;50.180;9.032;2023-01-05T15:12:32;13.07;;;3.80;;
72194;SDS011;60095;50.180;9.032;2023-01-05T15:15:13;9.20;;;3.30;;
72194;SDS011;60095;50.180;9.032;2023-01-05T15:17:48;1.38;;;1.27;;
72194;SDS011;60095;50.180;9.032;2023-01-05T15:20:33;10.30;;;4.45;;
72194;SDS011;60095;50.180;9.032;2023-01-05T15:23:13;7.55;;;3.10;;
72194;SDS011;60095;50.180;9.032;2023-01-05T15:31:22;8.15;;;2.63;;
72194;SDS011;60095;50.180;9.032;2023-01-05T15:33:59;18.40;;;3.47;;
72194;SDS011;60095;50.180;9.032;2023-01-05T15:36:31;6.75;;;3.42;;
72194;SDS011;60095;50.180;9.032;2023-01-05T15:38:58;12.35;;;3.00;;